Time;durP1;ratioP1;P1;durP2;ratioP2;P2;SDS_P1;SDS_P2;PMS_P1;PMS_P2;Temp;Humidity;BMP_temperature;BMP_pressure;BME280_temperature;BME280_humidity;BME280_pressure;Samples;Min_cycle;Max_cycle;Signal;HPM_P1;HPM_P2
2023/07/26 00:00:42;;;;;;;;;3.00;2.00;;;;;27.64;37.30;101305.56;5098170;27;45292;-69
2023/07/26 00:03:07;;;;;;;;;2.00;2.00;;;;;27.67;36.81;101317.69;5098197;27;45308;-69
2023/07/26 00:05:32;;;;;;;;;3.67;2.00;;;;;27.67;37.37;101312.34;5098218;27;45401;-69
2023/07/26 00:07:58;;;;;;;;;1.00;1.00;;;;;27.67;37.28;101312.34;5098233;27;45337;-69
2023/07/26 00:10:23;;;;;;;;;2.00;2.00;;;;;27.66;37.25;101316.88;5097999;27;47088;-69
2023/07/26 00:12:48;;;;;;;;;1.00;1.00;;;;;27.67;36.82;101315.84;5096683;27;45372;-69
2023/07/26 00:15:14;;;;;;;;;2.00;2.00;;;;;27.67;36.92;101313.16;5098392;27;45356;-69
2023/07/26 00:17:39;;;;;;;;;3.00;3.00;;;;;27.65;37.00;101301.84;5097877;27;45696;-69
2023/07/26 00:20:05;;;;;;;;;3.00;2.00;;;;;27.67;36.84;101315.84;5097539;27;54689;-69
2023/07/26 00:22:31;;;;;;;;;2.00;2.00;;;;;27.68;36.96;101320.16;5098085;27;45332;-69
2023/07/26 00:24:59;;;;;;;;;4.00;2.67;;;;;27.69;37.25;101321.00;5096649;27;45320;-69
2023/07/26 00:27:24;;;;;;;;;3.00;2.00;;;;;27.66;37.17;101316.06;5097553;27;45412;-69
2023/07/26 00:29:50;;;;;;;;;1.00;1.00;;;;;27.67;36.93;101318.50;5097536;27;46069;-69
2023/07/26 00:32:15;;;;;;;;;3.00;2.00;;;;;27.67;37.56;101313.16;5097652;27;45420;-69
2023/07/26 00:34:40;;;;;;;;;2.00;2.00;;;;;27.66;37.61;101308.03;5096618;27;45474;-69
2023/07/26 00:37:06;;;;;;;;;2.00;2.00;;;;;27.67;37.65;101309.66;5097585;27;45311;-69
2023/07/26 00:39:31;;;;;;;;;2.00;2.00;;;;;27.62;37.66;101304.94;5097482;27;46140;-69
2023/07/26 00:41:56;;;;;;;;;1.67;1.67;;;;;27.65;37.03;101298.34;5097222;27;45337;-69
2023/07/26 00:44:21;;;;;;;;;2.00;2.00;;;;;27.65;36.75;101301.84;5097711;27;45387;-69
2023/07/26 00:46:47;;;;;;;;;3.33;2.00;;;;;27.65;37.64;101307.22;5097683;27;45422;-69
2023/07/26 00:49:13;;;;;;;;;1.33;1.33;;;;;27.64;37.05;101302.88;5097512;27;46056;-69
2023/07/26 00:51:39;;;;;;;;;2.33;2.33;;;;;27.64;37.05;101305.56;5097180;27;45392;-69
2023/07/26 00:54:06;;;;;;;;;2.33;2.33;;;;;27.63;37.00;101304.75;5097522;27;45271;-69
2023/07/26 00:56:31;;;;;;;;;2.67;2.00;;;;;27.65;37.43;101306.38;5097109;27;45363;-69
2023/07/26 00:58:58;;;;;;;;;2.00;2.00;;;;;27.65;37.66;101309.88;5097130;27;47295;-69
2023/07/26 01:01:23;;;;;;;;;2.33;2.33;;;;;27.64;36.98;101313.56;5097162;27;45395;-69
2023/07/26 01:03:48;;;;;;;;;2.00;2.00;;;;;27.63;37.59;101311.94;5097593;27;45245;-69
2023/07/26 01:06:32;;;;;;;;;3.33;2.00;;;;;27.64;37.64;101310.91;5097228;27;45254;-69
2023/07/26 01:09:19;;;;;;;;;2.00;2.00;;;;;27.62;37.18;101305.78;5097174;27;45287;-69
2023/07/26 01:12:01;;;;;;;;;2.00;2.00;;;;;27.62;37.30;101296.91;5096680;27;45350;-69
2023/07/26 01:14:44;;;;;;;;;2.00;2.00;;;;;27.61;37.54;101303.31;5097260;27;45378;-69
2023/07/26 01:17:10;;;;;;;;;1.33;1.33;;;;;27.61;37.00;101304.13;5095567;27;45287;-68
2023/07/26 01:19:36;;;;;;;;;3.00;2.00;;;;;27.61;37.01;101304.13;5096857;27;45423;-69
2023/07/26 01:22:01;;;;;;;;;3.00;3.00;;;;;27.63;37.15;101306.59;5096888;27;45357;-69
2023/07/26 01:24:26;;;;;;;;;2.67;2.67;;;;;27.63;37.19;101299.41;5096896;27;45874;-69
2023/07/26 01:26:51;;;;;;;;;2.00;2.00;;;;;27.64;37.78;101308.22;5096607;27;45305;-69
2023/07/26 01:29:17;;;;;;;;;2.00;2.00;;;;;27.63;37.37;101304.75;5096896;27;46183;-69
2023/07/26 01:31:42;;;;;;;;;2.00;2.00;;;;;27.64;37.68;101305.56;5096766;27;45418;-69
2023/07/26 01:34:09;;;;;;;;;3.00;3.00;;;;;27.63;37.52;101293.22;5097098;27;45418;-69
2023/07/26 01:36:35;;;;;;;;;0.00;0.00;;;;;27.66;37.71;101294.66;5096992;27;45317;-69
2023/07/26 01:39:02;;;;;;;;;3.33;2.00;;;;;27.66;37.76;101302.69;5095227;27;45307;-69
2023/07/26 01:41:28;;;;;;;;;3.00;3.00;;;;;27.67;37.20;101298.97;5096255;27;45299;-69
2023/07/26 01:43:53;;;;;;;;;3.67;2.67;;;;;27.66;37.15;101298.16;5096702;27;45373;-68
2023/07/26 01:46:19;;;;;;;;;2.67;2.67;;;;;27.64;37.48;101294.84;5096810;27;45365;-69
2023/07/26 01:48:44;;;;;;;;;2.33;2.33;;;;;27.63;37.95;101296.72;5096554;27;45412;-69
2023/07/26 01:51:09;;;;;;;;;4.00;2.00;;;;;27.64;37.85;101300.19;5096322;27;45415;-69
2023/07/26 01:53:35;;;;;;;;;2.00;2.00;;;;;27.62;37.16;101295.06;5096430;27;45326;-69
2023/07/26 01:56:01;;;;;;;;;2.00;2.00;;;;;27.63;37.39;101302.06;5096126;27;45793;-69
2023/07/26 01:58:27;;;;;;;;;4.00;2.33;;;;;27.62;37.13;101296.91;5096300;27;46103;-69
2023/07/26 02:00:52;;;;;;;;;3.00;3.00;;;;;27.61;37.91;101296.09;5096408;27;45380;-69
2023/07/26 02:03:17;;;;;;;;;3.67;2.33;;;;;27.60;37.55;101294.47;5096397;27;45621;-69
2023/07/26 02:05:44;;;;;;;;;2.33;2.33;;;;;27.61;37.75;101293.44;5096505;27;45329;-69
2023/07/26 02:08:10;;;;;;;;;2.00;2.00;;;;;27.60;37.67;101293.63;5096477;27;46187;-69
2023/07/26 02:10:35;;;;;;;;;2.00;2.00;;;;;27.59;37.39;101292.00;5095972;27;45400;-69
2023/07/26 02:13:00;;;;;;;;;1.00;1.00;;;;;27.60;37.22;101294.47;5096298;27;45424;-69
2023/07/26 02:15:26;;;;;;;;;2.00;2.00;;;;;27.60;37.24;101293.63;5096428;27;45399;-69
2023/07/26 02:17:51;;;;;;;;;2.67;2.67;;;;;27.59;37.43;101295.50;5095715;27;46304;-69
2023/07/26 02:20:16;;;;;;;;;1.67;1.67;;;;;27.59;37.27;101297.34;5094778;27;51510;-69
2023/07/26 02:22:42;;;;;;;;;2.67;2.67;;;;;27.60;37.86;101297.16;5096097;27;45185;-69
2023/07/26 02:25:07;;;;;;;;;2.00;2.00;;;;;27.61;37.95;101304.13;5095897;27;45283;-69
2023/07/26 02:27:32;;;;;;;;;3.00;3.00;;;;;27.59;37.93;101294.66;5095932;27;46803;-69
2023/07/26 02:29:59;;;;;;;;;2.00;2.00;;;;;27.60;37.85;101299.81;5095892;27;45427;-69
2023/07/26 02:32:24;;;;;;;;;2.00;2.00;;;;;27.60;37.31;101299.81;5095885;27;45352;-69
2023/07/26 02:34:49;;;;;;;;;2.00;1.33;;;;;27.61;37.88;101300.66;5096661;27;45365;-69
2023/07/26 02:37:15;;;;;;;;;2.00;2.00;;;;;27.61;37.29;101297.97;5099448;27;47280;-69
2023/07/26 02:39:40;;;;;;;;;2.33;2.33;;;;;27.62;37.23;101294.25;5099338;27;45247;-69
2023/07/26 02:42:05;;;;;;;;;2.00;2.00;;;;;27.63;37.98;101296.72;5099567;27;45342;-69
2023/07/26 02:44:31;;;;;;;;;2.00;2.00;;;;;27.61;37.85;101298.78;5099692;27;45371;-69
2023/07/26 02:46:56;;;;;;;;;1.00;1.00;;;;;27.62;37.85;101296.91;5097894;27;47077;-69
2023/07/26 02:49:21;;;;;;;;;1.00;1.00;;;;;27.59;37.86;101292.81;5099506;27;45445;-69
2023/07/26 02:51:47;;;;;;;;;1.33;1.33;;;;;27.60;37.30;101291.81;5094623;27;45355;-69
2023/07/26 02:54:12;;;;;;;;;3.33;1.33;;;;;27.61;37.46;101288.06;5092342;27;45244;-69
2023/07/26 02:56:37;;;;;;;;;2.00;2.00;;;;;27.62;37.14;101288.91;5099099;27;46897;-69
2023/07/26 02:59:03;;;;;;;;;3.00;2.00;;;;;27.64;37.82;101294.84;5099297;27;45293;-69
2023/07/26 03:01:28;;;;;;;;;1.00;1.00;;;;;27.63;37.83;101293.22;5099284;27;45206;-69
2023/07/26 03:03:53;;;;;;;;;2.00;2.00;;;;;27.61;37.86;101282.72;5099354;27;45402;-69
2023/07/26 03:06:19;;;;;;;;;3.00;1.67;;;;;27.61;37.52;101289.94;5098791;27;51206;-69
2023/07/26 03:08:44;;;;;;;;;6.00;3.00;;;;;27.60;38.04;101290.97;5098590;27;45492;-69
2023/07/26 03:11:09;;;;;;;;;5.33;2.00;;;;;27.61;37.78;101287.28;5099142;27;45329;-69
2023/07/26 03:13:34;;;;;;;;;2.00;2.00;;;;;27.61;37.31;101293.44;5099206;27;45346;-69
2023/07/26 03:16:00;;;;;;;;;2.00;2.00;;;;;27.60;37.33;101285.63;5098822;27;45910;-70
2023/07/26 03:18:25;;;;;;;;;1.00;1.00;;;;;27.61;38.00;101295.28;5098659;27;46503;-70
2023/07/26 03:20:50;;;;;;;;;2.00;2.00;;;;;27.60;37.75;101289.13;5099031;27;45315;-69
2023/07/26 03:23:16;;;;;;;;;3.33;2.00;;;;;27.60;37.33;101301.66;5098744;27;45273;-69
2023/07/26 03:25:42;;;;;;;;;4.00;2.00;;;;;27.60;37.44;101297.16;5098599;27;47080;-69
2023/07/26 03:28:07;;;;;;;;;2.00;2.00;;;;;27.59;38.00;101297.34;5098800;27;45371;-69
2023/07/26 03:30:32;;;;;;;;;2.67;2.67;;;;;27.58;37.69;101301.88;5098800;27;45684;-69
2023/07/26 03:32:58;;;;;;;;;2.00;2.00;;;;;27.58;38.07;101293.88;5098805;27;45324;-69
2023/07/26 03:35:23;;;;;;;;;3.00;1.33;;;;;27.58;37.63;101291.19;5098575;27;46199;-69
2023/07/26 03:37:49;;;;;;;;;2.00;2.00;;;;;27.58;37.91;101291.19;5096921;27;45410;-69
2023/07/26 03:40:14;;;;;;;;;3.00;3.00;;;;;27.56;37.45;101290.56;5098874;27;45335;-69
2023/07/26 03:42:40;;;;;;;;;2.00;2.00;;;;;27.58;37.88;101295.72;5098771;27;45326;-69
2023/07/26 03:45:06;;;;;;;;;2.00;2.00;;;;;27.58;37.35;101301.06;5098536;27;45976;-69
2023/07/26 03:47:31;;;;;;;;;2.67;2.67;;;;;27.57;37.53;101302.06;5097235;27;45423;-69
2023/07/26 03:49:59;;;;;;;;;2.00;2.00;;;;;27.59;37.39;101302.69;5098784;27;45423;-69
2023/07/26 03:52:24;;;;;;;;;3.00;3.00;;;;;27.60;37.43;101304.34;5098049;27;45365;-69
2023/07/26 03:54:50;;;;;;;;;2.00;2.00;;;;;27.60;38.01;101299.00;5098063;27;45573;-69
2023/07/26 03:57:16;;;;;;;;;3.00;1.67;;;;;27.59;37.24;101305.34;5098295;27;45289;-70
2023/07/26 03:59:41;;;;;;;;;4.00;2.00;;;;;27.59;37.97;101300.00;5098256;27;45456;-69
2023/07/26 04:02:08;;;;;;;;;2.00;2.00;;;;;27.59;37.82;101292.00;5098339;27;45413;-69
2023/07/26 04:04:33;;;;;;;;;1.33;1.00;;;;;27.59;37.58;101286.66;5098163;27;46985;-69
2023/07/26 04:06:58;;;;;;;;;2.00;2.00;;;;;27.60;37.65;101290.97;5097567;27;45335;-69
2023/07/26 04:09:24;;;;;;;;;1.67;1.33;;;;;27.58;37.77;101277.81;5098295;27;45377;-69
2023/07/26 04:11:54;;;;;;;;;2.33;2.33;;;;;27.59;37.62;101292.00;5098023;27;45380;-70
2023/07/26 04:14:19;;;;;;;;;2.00;2.00;;;;;27.59;37.38;101284.78;5098081;27;46055;-69
2023/07/26 04:16:45;;;;;;;;;3.00;2.00;;;;;27.59;37.36;101289.31;5096442;27;45732;-69
2023/07/26 04:19:10;;;;;;;;;3.00;3.00;;;;;27.59;37.57;101289.31;5098028;27;45132;-69
2023/07/26 04:21:35;;;;;;;;;2.00;2.00;;;;;27.58;37.51;101298.38;5097494;27;46803;-69
2023/07/26 04:24:01;;;;;;;;;2.00;2.00;;;;;27.57;38.03;101302.91;5097540;27;53303;-69
2023/07/26 04:26:26;;;;;;;;;2.00;2.00;;;;;27.57;38.12;101299.41;5097937;27;45341;-69
2023/07/26 04:28:51;;;;;;;;;2.00;2.00;;;;;27.57;37.45;101299.41;5097966;27;45488;-69
2023/07/26 04:31:16;;;;;;;;;2.00;2.00;;;;;27.56;38.10;101298.56;5097878;27;45262;-69
2023/07/26 04:33:42;;;;;;;;;3.00;3.00;;;;;27.57;37.46;101300.22;5097020;27;52578;-67
2023/07/26 04:36:07;;;;;;;;;3.67;2.67;;;;;27.58;37.84;101314.41;5097454;27;47173;-69
2023/07/26 04:38:32;;;;;;;;;2.00;2.00;;;;;27.57;37.44;101307.41;5097790;27;45265;-69
2023/07/26 04:40:58;;;;;;;;;1.67;1.67;;;;;27.57;38.16;101307.41;5097707;27;45388;-69
2023/07/26 04:43:23;;;;;;;;;4.00;3.00;;;;;27.56;37.57;101308.47;5097374;27;46168;-69
2023/07/26 04:45:52;;;;;;;;;1.00;1.00;;;;;27.56;37.55;101308.47;5097621;27;45302;-69
2023/07/26 04:48:19;;;;;;;;;1.33;1.33;;;;;27.53;38.17;101304.34;5097388;27;45396;-70
2023/07/26 04:50:47;;;;;;;;;2.33;2.33;;;;;27.56;38.01;101317.28;5097325;27;45630;-70
2023/07/26 04:53:12;;;;;;;;;2.00;2.00;;;;;27.56;38.10;101314.59;5097050;27;47107;-69
2023/07/26 04:55:46;;;;;;;;;2.00;2.00;;;;;27.54;37.97;101318.50;5097185;27;45482;-69
2023/07/26 04:58:12;;;;;;;;;1.33;1.33;;;;;27.54;38.02;101319.34;5096974;27;45327;-70
2023/07/26 05:00:41;;;;;;;;;1.33;1.00;;;;;27.57;37.70;101320.78;5097434;27;45368;-69
2023/07/26 05:03:07;;;;;;;;;2.00;2.00;;;;;27.57;38.10;101315.44;5096851;27;46411;-69
2023/07/26 05:05:34;;;;;;;;;1.00;1.00;;;;;27.56;37.66;101313.81;5097109;27;45484;-70
2023/07/26 05:07:59;;;;;;;;;1.00;1.00;;;;;27.57;38.13;101329.63;5097199;27;45271;-69
2023/07/26 05:10:25;;;;;;;;;1.67;1.67;;;;;27.57;37.86;101329.63;5097225;27;45489;-69
2023/07/26 05:12:51;;;;;;;;;2.00;1.00;;;;;27.58;38.16;101320.59;5097000;27;45988;-69
2023/07/26 05:15:17;;;;;;;;;2.00;1.00;;;;;27.58;38.12;101328.59;5097169;27;45388;-69
2023/07/26 05:17:43;;;;;;;;;1.00;1.00;;;;;27.59;37.57;101326.72;5096506;27;45536;-69
2023/07/26 05:20:08;;;;;;;;;2.00;2.00;;;;;27.58;37.94;101323.25;5096994;27;45390;-69
2023/07/26 05:22:34;;;;;;;;;2.33;2.33;;;;;27.59;37.92;101330.22;5095710;27;46140;-69
2023/07/26 05:24:59;;;;;;;;;1.00;1.00;;;;;27.59;38.21;101330.22;5096937;27;45439;-69
2023/07/26 05:27:24;;;;;;;;;2.00;2.00;;;;;27.60;37.88;101331.88;5096847;27;45307;-69
2023/07/26 05:29:50;;;;;;;;;1.00;1.00;;;;;27.60;37.67;101331.88;5096971;27;45437;-69
2023/07/26 05:32:15;;;;;;;;;2.00;2.00;;;;;27.61;37.33;101338.84;5095698;27;48578;-69
2023/07/26 05:34:40;;;;;;;;;1.00;1.00;;;;;27.61;38.00;101340.72;5096698;27;45476;-69
2023/07/26 05:37:06;;;;;;;;;1.00;1.00;;;;;27.61;37.42;101344.19;5096991;27;45353;-69
2023/07/26 05:39:32;;;;;;;;;1.00;1.00;;;;;27.60;37.80;101344.41;5096419;27;52361;-69
2023/07/26 05:41:57;;;;;;;;;3.00;3.00;;;;;27.58;37.62;101343.81;5096625;27;46094;-70
2023/07/26 05:44:22;;;;;;;;;2.00;2.00;;;;;27.60;38.04;101347.91;5096470;27;45304;-69
2023/07/26 05:46:48;;;;;;;;;3.00;3.00;;;;;27.60;37.47;101350.59;5096322;27;45225;-69
2023/07/26 05:49:13;;;;;;;;;1.00;1.00;;;;;27.60;38.06;101358.63;5096798;27;45341;-69
2023/07/26 05:51:38;;;;;;;;;2.00;2.00;;;;;27.59;38.08;101351.63;5096289;27;46227;-69
2023/07/26 05:54:04;;;;;;;;;1.00;1.00;;;;;27.60;37.88;101363.13;5096357;27;45224;-69
2023/07/26 05:56:29;;;;;;;;;2.00;2.00;;;;;27.60;38.15;101365.81;5096489;27;45181;-69
2023/07/26 05:58:54;;;;;;;;;4.00;2.00;;;;;27.59;37.50;101364.97;5096692;27;45318;-69
2023/07/26 06:01:20;;;;;;;;;3.00;1.00;;;;;27.60;38.13;101352.44;5095768;27;50232;-69
2023/07/26 06:03:46;;;;;;;;;2.33;2.33;;;;;27.60;37.68;101357.78;5096281;27;45272;-69
2023/07/26 06:06:11;;;;;;;;;2.00;2.00;;;;;27.57;38.36;101359.03;5096507;27;45465;-70
2023/07/26 06:08:36;;;;;;;;;8.33;6.00;;;;;27.52;36.19;101361.50;5096393;27;45376;-72
2023/07/26 06:11:02;;;;;;;;;7.67;7.00;;;;;27.21;36.21;101360.22;5096873;27;47936;-69
2023/07/26 06:13:27;;;;;;;;;10.00;7.00;;;;;26.77;36.50;101364.00;5099876;27;45264;-73
2023/07/26 06:15:53;;;;;;;;;6.00;6.00;;;;;26.35;36.82;101358.66;5099637;27;45533;-72
2023/07/26 06:18:19;;;;;;;;;6.33;5.33;;;;;26.06;37.01;101361.38;5099622;27;45328;-72
2023/07/26 06:20:45;;;;;;;;;3.67;2.33;;;;;26.02;37.85;101374.25;5099649;27;46189;-72
2023/07/26 06:23:10;;;;;;;;;5.50;3.50;;;;;26.06;38.21;101372.84;5080822;27;45371;-70
2023/07/26 06:25:35;;;;;;;;;6.00;4.67;;;;;26.14;38.14;101366.56;5078352;27;45357;-71
2023/07/26 06:28:01;;;;;;;;;4.00;4.00;;;;;26.23;37.85;101353.88;5078582;27;45332;-71
2023/07/26 06:30:26;;;;;;;;;8.00;4.33;;;;;26.32;38.25;101367.88;5078517;27;46865;-72
2023/07/26 06:32:51;;;;;;;;;5.67;4.67;;;;;26.39;38.22;101363.41;5077057;28;45634;-73
2023/07/26 06:35:17;;;;;;;;;7.00;5.00;;;;;26.50;38.24;101362.03;5079337;27;45392;-70
2023/07/26 06:37:42;;;;;;;;;9.00;4.00;;;;;26.58;37.82;101361.06;5094870;27;45426;-71
2023/07/26 06:40:08;;;;;;;;;4.00;3.67;;;;;26.67;38.33;101352.88;5078875;27;47813;-72
2023/07/26 06:42:33;;;;;;;;;5.00;2.00;;;;;26.72;37.76;101351.25;5100491;27;45915;-71
2023/07/26 06:44:59;;;;;;;;;5.33;3.67;;;;;26.73;38.25;101350.22;5110589;27;45453;-71
2023/07/26 06:47:24;;;;;;;;;4.67;2.67;;;;;26.83;37.80;101349.00;5099452;27;45572;-72
2023/07/26 06:49:49;;;;;;;;;4.00;3.00;;;;;26.88;38.69;101362.56;5092607;27;45929;-70
2023/07/26 06:52:16;;;;;;;;;7.33;4.00;;;;;26.91;38.37;101362.19;5093628;27;45324;-70
2023/07/26 06:54:41;;;;;;;;;5.67;4.67;;;;;26.90;38.04;101349.03;5092285;27;45374;-70
2023/07/26 06:57:09;;;;;;;;;4.33;4.00;;;;;27.02;38.50;101360.78;5098356;27;45590;-71
2023/07/26 06:59:35;;;;;;;;;5.00;3.67;;;;;27.05;38.44;101351.53;5098055;27;46134;-71
2023/07/26 07:02:00;;;;;;;;;4.33;3.67;;;;;27.09;38.06;101355.44;5111035;27;46036;-71
2023/07/26 07:04:26;;;;;;;;;8.33;4.00;;;;;27.16;38.27;101355.50;5111276;27;46459;-70
2023/07/26 07:06:51;;;;;;;;;4.67;3.00;;;;;27.22;38.05;101361.88;5096355;27;45549;-70
2023/07/26 07:09:17;;;;;;;;;7.67;3.00;;;;;27.26;38.20;101358.59;5101330;27;47167;-70
2023/07/26 07:11:42;;;;;;;;;5.00;4.00;;;;;27.31;38.42;101344.63;5093482;27;45608;-70
2023/07/26 07:14:08;;;;;;;;;4.00;4.00;;;;;27.34;37.82;101354.06;5110226;27;45485;-70
2023/07/26 07:16:33;;;;;;;;;5.33;4.33;;;;;27.38;37.78;101353.47;5093321;27;45406;-70
2023/07/26 07:18:59;;;;;;;;;5.67;4.00;;;;;27.42;38.12;101361.91;5102166;27;46083;-69
2023/07/26 07:21:24;;;;;;;;;5.33;3.00;;;;;27.47;37.82;101363.94;5106035;27;45518;-69
2023/07/26 07:23:50;;;;;;;;;3.67;3.00;;;;;27.48;38.16;101370.94;5097987;27;45357;-69
2023/07/26 07:26:17;;;;;;;;;6.00;3.00;;;;;27.52;38.58;101373.00;5104016;27;45721;-69
2023/07/26 07:28:42;;;;;;;;;5.67;3.33;;;;;27.56;38.50;101368.06;5105459;27;46113;-69
2023/07/26 07:31:07;;;;;;;;;4.67;3.00;;;;;27.60;38.07;101369.31;5092741;27;45488;-69
2023/07/26 07:33:33;;;;;;;;;3.00;3.00;;;;;27.65;38.32;101381.22;5094607;27;45824;-70
2023/07/26 07:35:58;;;;;;;;;6.00;4.00;;;;;27.67;38.79;101379.16;5117514;27;45496;-69
2023/07/26 07:38:23;;;;;;;;;6.33;5.00;;;;;27.69;39.47;101361.88;5118313;27;46253;-69
2023/07/26 07:40:49;;;;;;;;;4.00;2.67;;;;;27.72;39.27;101371.34;5118594;27;45477;-70
2023/07/26 07:43:14;;;;;;;;;5.33;4.00;;;;;27.76;38.71;101371.75;5118426;27;45346;-69
2023/07/26 07:45:42;;;;;;;;;5.33;3.00;;;;;27.77;38.87;101368.88;5118405;27;45501;-69
2023/07/26 07:48:08;;;;;;;;;8.33;4.33;;;;;27.84;39.11;101379.59;5118655;27;45386;-69
2023/07/26 07:50:34;;;;;;;;;5.33;4.67;;;;;27.89;38.91;101376.31;5106062;27;45283;-69
2023/07/26 07:52:59;;;;;;;;;5.33;3.67;;;;;27.91;39.01;101372.41;5097877;27;45393;-69
2023/07/26 07:55:25;;;;;;;;;7.67;3.67;;;;;27.99;38.97;101376.69;5097844;27;45388;-69
2023/07/26 07:57:50;;;;;;;;;3.67;2.33;;;;;28.05;38.98;101386.53;5097587;27;46187;-70
2023/07/26 08:00:16;;;;;;;;;3.67;3.67;;;;;28.11;39.40;101379.56;5091627;27;45243;-70
2023/07/26 08:02:41;;;;;;;;;2.67;1.00;;;;;28.14;39.08;101376.47;5098235;27;45309;-70
2023/07/26 08:05:07;;;;;;;;;5.67;5.00;;;;;28.20;39.26;101382.84;5097916;27;45507;-70
2023/07/26 08:07:33;;;;;;;;;5.00;4.67;;;;;28.23;38.99;101381.59;5097841;27;46012;-69
2023/07/26 08:09:58;;;;;;;;;2.67;2.67;;;;;28.25;38.82;101369.66;5097566;27;45477;-70
2023/07/26 08:12:23;;;;;;;;;1.00;1.00;;;;;28.31;39.19;101385.91;5097527;27;45335;-70
2023/07/26 08:14:52;;;;;;;;;5.00;2.33;;;;;28.35;39.19;101379.06;5097851;27;45428;-70
2023/07/26 08:17:17;;;;;;;;;6.33;3.67;;;;;28.38;38.50;101382.16;5097590;27;46528;-70
2023/07/26 08:19:45;;;;;;;;;3.00;3.00;;;;;28.38;38.86;101376.81;5097620;27;45400;-70
2023/07/26 08:22:11;;;;;;;;;3.67;2.67;;;;;28.41;38.52;101378.25;5097627;27;45237;-70
2023/07/26 08:24:36;;;;;;;;;6.67;4.67;;;;;28.40;39.17;101377.41;5097634;27;46622;-70
2023/07/26 08:27:02;;;;;;;;;5.33;3.67;;;;;28.40;38.70;101364.03;5090943;27;46709;-70
2023/07/26 08:29:28;;;;;;;;;4.00;4.00;;;;;28.40;38.97;101363.22;5097514;27;45300;-70
2023/07/26 08:31:53;;;;;;;;;3.00;3.00;;;;;28.43;39.22;101364.63;5097621;27;45416;-70
2023/07/26 08:34:18;;;;;;;;;4.67;3.33;;;;;28.43;38.78;101361.97;5096642;27;45401;-69
2023/07/26 08:36:44;;;;;;;;;5.33;5.00;;;;;28.44;39.32;101367.13;5097153;27;45454;-70
2023/07/26 08:39:09;;;;;;;;;5.00;3.33;;;;;28.46;38.46;101367.75;5097455;27;45340;-70
2023/07/26 08:41:34;;;;;;;;;3.33;2.33;;;;;28.47;38.60;101368.59;5097115;27;45392;-70
2023/07/26 08:44:03;;;;;;;;;3.67;3.33;;;;;28.48;38.99;101368.38;5097386;27;45391;-69
2023/07/26 08:46:29;;;;;;;;;4.67;4.00;;;;;28.50;38.95;101378.84;5097185;27;45374;-70
2023/07/26 08:48:56;;;;;;;;;4.33;4.00;;;;;28.49;38.52;101371.88;5095718;27;45311;-69
2023/07/26 08:51:22;;;;;;;;;3.00;3.00;;;;;28.49;38.42;101370.03;5097022;27;45388;-69
2023/07/26 08:53:49;;;;;;;;;5.00;3.33;;;;;28.50;38.17;101371.66;5096933;27;45345;-70
2023/07/26 08:56:15;;;;;;;;;5.00;3.67;;;;;28.49;38.85;101367.34;5093355;27;46059;-69
2023/07/26 08:58:42;;;;;;;;;4.67;4.67;;;;;28.50;38.48;101377.00;5096732;27;45421;-69
2023/07/26 09:01:08;;;;;;;;;5.67;4.33;;;;;28.53;38.48;101381.09;5106023;27;45310;-70
2023/07/26 09:03:34;;;;;;;;;7.67;4.33;;;;;28.55;38.71;101378.22;5117661;27;45381;-70
2023/07/26 09:06:03;;;;;;;;;5.67;3.33;;;;;28.59;38.58;101377.59;5108844;27;45545;-70
2023/07/26 09:08:29;;;;;;;;;4.33;4.00;;;;;28.62;38.15;101373.66;5096718;27;45513;-70
2023/07/26 09:10:54;;;;;;;;;5.00;3.33;;;;;28.62;38.74;101365.63;5096094;27;45353;-69
2023/07/26 09:13:19;;;;;;;;;15.33;13.00;;;;;28.65;38.52;101367.88;5096885;27;45542;-71
2023/07/26 09:15:45;;;;;;;;;16.00;11.00;;;;;28.68;38.40;101369.28;5096649;27;46056;-71
2023/07/26 09:18:12;;;;;;;;;13.00;7.67;;;;;28.71;38.45;101363.53;5096404;27;45503;-70
2023/07/26 09:20:38;;;;;;;;;6.67;4.00;;;;;28.69;36.47;101365.59;5096849;27;45420;-69
2023/07/26 09:23:04;;;;;;;;;5.00;3.00;;;;;28.61;35.54;101367.50;5096669;27;45457;-68
2023/07/26 09:25:44;;;;;;;;;3.67;3.67;;;;;28.56;36.25;101371.81;5096078;27;46179;-68
2023/07/26 09:28:14;;;;;;;;;3.33;3.00;;;;;28.53;35.41;101365.03;5096382;27;45383;-70
2023/07/26 09:30:41;;;;;;;;;3.00;3.00;;;;;28.49;35.60;101361.16;5096484;27;45357;-69
2023/07/26 09:33:08;;;;;;;;;4.67;2.33;;;;;28.50;35.82;101368.97;5096669;27;45394;-69
2023/07/26 09:35:52;;;;;;;;;2.33;2.33;;;;;28.46;36.00;101362.41;5096280;27;46907;-70
2023/07/26 09:38:22;;;;;;;;;4.00;1.67;;;;;28.45;36.08;101368.78;5096024;27;45308;-73
2023/07/26 09:40:48;;;;;;;;;3.00;3.00;;;;;28.42;35.78;101358.47;5096384;27;45316;-72
2023/07/26 09:43:13;;;;;;;;;3.00;3.00;;;;;28.43;35.44;101364.63;5096445;27;45291;-70
2023/07/26 09:45:40;;;;;;;;;4.00;3.00;;;;;28.40;35.31;101365.88;5095995;27;47083;-73
2023/07/26 09:48:14;;;;;;;;;2.67;2.33;;;;;28.42;34.80;101371.03;5092024;27;45999;-72
2023/07/26 09:50:43;;;;;;;;;1.00;1.00;;;;;28.39;34.97;101364.25;5100274;27;45524;-71
2023/07/26 09:53:11;;;;;;;;;2.00;2.00;;;;;28.36;35.20;101362.00;5091189;27;45481;-71
2023/07/26 09:55:37;;;;;;;;;1.00;1.00;;;;;28.37;35.00;101371.66;5090521;27;47076;-71
2023/07/26 09:58:04;;;;;;;;;1.00;1.00;;;;;28.36;34.34;101365.50;5102268;27;45405;-70
2023/07/26 10:00:31;;;;;;;;;1.00;1.00;;;;;28.36;33.18;101360.16;5111404;27;45290;-69
2023/07/26 10:03:03;;;;;;;;;1.00;1.00;;;;;28.31;33.52;101359.13;5106248;27;45835;-71
2023/07/26 10:05:34;;;;;;;;;3.00;1.00;;;;;28.27;34.78;101362.22;5091361;27;45865;-71
2023/07/26 10:08:00;;;;;;;;;1.33;1.33;;;;;28.21;34.48;101368.41;5089860;27;45798;-71
2023/07/26 10:10:27;;;;;;;;;1.67;1.67;;;;;28.20;34.16;101366.78;5096939;27;45392;-71
2023/07/26 10:12:57;;;;;;;;;3.00;1.67;;;;;28.18;33.72;101368.84;5111591;27;45642;-71
2023/07/26 10:15:24;;;;;;;;;3.00;1.00;;;;;28.13;34.23;101366.78;5110939;27;46930;-71
2023/07/26 10:17:52;;;;;;;;;4.00;2.00;;;;;28.13;34.04;101363.31;5106056;27;45580;-71
2023/07/26 10:20:17;;;;;;;;;3.00;1.00;;;;;28.16;34.10;101369.03;5094384;27;45527;-70
2023/07/26 10:22:43;;;;;;;;;2.00;1.00;;;;;28.16;34.02;101377.06;5109874;27;45579;-71
2023/07/26 10:25:10;;;;;;;;;3.00;3.00;;;;;28.20;34.51;101379.34;5111533;27;45538;-71
2023/07/26 10:27:36;;;;;;;;;2.00;1.33;;;;;28.21;34.47;101371.09;5110993;27;45330;-71
2023/07/26 10:30:03;;;;;;;;;2.00;2.00;;;;;28.25;34.46;101375.00;5111330;27;45713;-72
2023/07/26 10:32:28;;;;;;;;;2.67;1.67;;;;;28.29;32.90;101375.38;5110687;27;45468;-71
2023/07/26 10:34:55;;;;;;;;;2.00;2.00;;;;;28.29;33.81;101375.38;5108521;27;46048;-71
2023/07/26 10:37:21;;;;;;;;;2.00;2.00;;;;;28.27;33.89;101372.94;5088613;27;45984;-73
2023/07/26 10:39:48;;;;;;;;;1.00;1.00;;;;;28.27;32.69;101374.78;5090468;27;45527;-72
2023/07/26 10:42:22;;;;;;;;;1.00;1.00;;;;;28.26;32.98;101375.81;5090785;27;45421;-73
2023/07/26 10:44:48;;;;;;;;;0.67;0.67;;;;;28.27;33.54;101367.56;5090147;27;46200;-72
2023/07/26 10:47:14;;;;;;;;;1.00;1.00;;;;;28.29;34.36;101365.50;5090682;27;45406;-72
2023/07/26 10:49:46;;;;;;;;;3.00;2.00;;;;;28.31;32.86;101364.50;5089547;27;45653;-73
2023/07/26 10:52:12;;;;;;;;;0.33;0.33;;;;;28.31;33.21;101359.13;5087109;27;45469;-72
2023/07/26 10:54:48;;;;;;;;;1.00;1.00;;;;;28.26;33.08;101351.75;5098338;27;45977;-71
2023/07/26 10:57:27;;;;;;;;;1.67;1.00;;;;;28.32;33.46;101355.41;5106603;27;45663;-73
2023/07/26 10:59:56;;;;;;;;;1.00;1.00;;;;;28.34;33.96;101353.38;5097899;27;45365;-71
2023/07/26 11:02:39;;;;;;;;;1.00;1.00;;;;;28.36;33.47;101351.31;5091816;27;46006;-72
2023/07/26 11:05:19;;;;;;;;;1.33;1.33;;;;;28.38;33.83;101347.38;5096335;27;45492;-72
2023/07/26 11:07:51;;;;;;;;;2.33;2.00;;;;;28.40;34.26;101339.13;5096558;27;45817;-72
2023/07/26 11:10:24;;;;;;;;;1.00;1.00;;;;;28.32;33.34;101326.81;5109735;27;45539;-73
2023/07/26 11:13:04;;;;;;;;;2.00;2.00;;;;;28.43;33.64;101335.22;5108036;27;45419;-72
2023/07/26 11:15:30;;;;;;;;;1.33;1.33;;;;;28.44;33.04;101336.84;5104656;27;47006;-72
2023/07/26 11:17:55;;;;;;;;;1.00;1.00;;;;;28.43;32.64;101328.00;5101897;27;45555;-73
2023/07/26 11:20:21;;;;;;;;;1.00;1.00;;;;;28.43;32.82;101313.78;5098949;27;45546;-73